Flight Track Log - Related Links

Times and Time Zones

All times are in EST time to prevent confusion due to time zone crossing. See the CSH851 flight status page for this flight to view local times or setup timezone preferences in your user account.

Time Position Orientation Groundspeed Altitude Reporting Facility
EST Latitude Longitude Course Direction KTS MPH feet Rate Location/Type
Sat 08:31:00 PM 30.0746 121.3777 178° South  Level Estimated
Sat 08:32:00 PM 29.9725 121.3814 178° South  Level Estimated
Sat 08:33:00 PM 29.8704 121.3851 178° South  Level Estimated
Sat 08:34:00 PM 29.7828 121.3883 178° South  Level Estimated
Sat 08:35:00 PM 29.6953 121.3915 178° South  Level Estimated
Sat 08:36:00 PM 29.6078 121.3946 178° South  Level Estimated
Sat 08:37:00 PM 29.5202 121.3978 178° South  Level Estimated
Sat 08:38:00 PM 29.4327 121.4009 178° South  Level Estimated
Sat 08:39:00 PM 29.3452 121.4041 178° South  Level Estimated
Sat 08:40:00 PM 29.2577 121.4072 178° South  Level Estimated
Sat 08:41:00 PM 29.1701 121.4104 178° South  Level Estimated
Sat 08:42:00 PM 29.0826 121.4135 178° South  Level Estimated
Sat 08:43:00 PM 28.9951 121.4166 178° South  Level Estimated
Sat 08:44:00 PM 28.9075 121.4197 178° South  Level Estimated
Sat 08:45:00 PM 28.8200 121.4228 178° South  Level Estimated
Sat 08:46:00 PM 28.7325 121.4259 178° South  Level Estimated
Sat 08:47:00 PM 28.6449 121.4290 178° South  Level Estimated
Sat 08:48:00 PM 28.5574 121.4322 178° South  Level Estimated
Sat 08:49:00 PM 28.4699 121.4352 178° South  Level Estimated
Sat 08:50:00 PM 28.3824 121.4383 178° South  Level Estimated
Sat 08:51:00 PM 28.2948 121.4414 178° South  Level Estimated
Sat 08:52:00 PM 28.2073 121.4445 178° South  Level Estimated
Sat 08:53:00 PM 28.1198 121.4476 178° South  Level Estimated
Sat 08:54:00 PM 28.0322 121.4506 178° South  Level Estimated
Sat 08:55:00 PM 27.9447 121.4537 178° South  Level Estimated
Sat 08:56:00 PM 27.8572 121.4567 178° South  Level Estimated
Sat 08:57:00 PM 27.7696 121.4598 178° South  Level Estimated
Sat 08:58:00 PM 27.6821 121.4629 178° South  Level Estimated
Sat 08:59:00 PM 27.5946 121.4659 178° South  Level Estimated
Sat 09:00:00 PM 27.5070 121.4689 178° South  Level Estimated
Sat 09:01:00 PM 27.4195 121.4720 178° South  Level Estimated
Sat 09:02:00 PM 27.3320 121.4750 178° South  Level Estimated
Sat 09:03:00 PM 27.2445 121.4780 178° South  Level Estimated
Sat 09:04:00 PM 27.1569 121.4810 178° South  Level Estimated
Sat 09:05:00 PM 27.0694 121.4840 178° South  Level Estimated
Sat 09:06:00 PM 26.9819 121.4871 178° South  Level Estimated
Sat 09:07:00 PM 26.8943 121.4901 178° South  Level Estimated
Sat 09:08:00 PM 26.8068 121.4930 178° South  Level Estimated
Sat 09:09:00 PM 26.7193 121.4960 178° South  Level Estimated
Sat 09:10:00 PM 26.6318 121.4990 178° South  Level Estimated
Sat 09:11:00 PM 26.5442 121.5020 178° South  Level Estimated
Sat 09:12:00 PM 26.4567 121.5050 178° South  Level Estimated
Sat 09:13:00 PM 26.3692 121.5080 178° South  Level Estimated
Sat 09:14:00 PM 26.2816 121.5110 178° South  Level Estimated
Sat 09:15:00 PM 26.1941 121.5139 178° South  Level Estimated
Sat 09:16:00 PM 26.1282 121.5162 178° South  Level Estimated
Sat 09:17:00 PM 26.0623 121.5184 178° South  Level Estimated
Sat 09:18:00 PM 25.9965 121.5206 178° South  Level Estimated
Sat 09:19:00 PM 25.9306 121.5228 178° South  Level Estimated
Sat 09:20:00 PM 25.8647 121.5251 178° South  Level Estimated
Sat 09:21:00 PM 25.7988 121.5273 178° South  Level Estimated
Sat 09:22:00 PM 25.7329 121.5295 178° South  Level Estimated
Sat 09:23:00 PM 25.6671 121.5317 178° South  Level Estimated
Sat 09:24:00 PM 25.6012 121.5339 178° South  Level Estimated
Sat 09:25:00 PM 25.5353 121.5361 178° South  Level Estimated
Sat 09:26:00 PM 25.4694 121.5383 178° South  Level Estimated
Sat 09:27:00 PM 25.4035 121.5405 178° South  Level Estimated
Sat 09:28:00 PM 25.3377 121.5427 178° South  Level Estimated
Sat 09:29:00 PM 25.2718 121.5449 178° South  Level Estimated
Sat 09:30:00 PM 25.2059 121.5471 178° South  Level Estimated
Sat 09:31:00 PM 25.1400 121.5493 178° South  Level Estimated
Sat 09:32:00 PM 25.0741 121.5515 178° South  Level Estimated
Sat 09:33:00 PM 25.0694 121.5517 178° South  Level Estimated
Sat 09:34:00 PM 25.0694 121.5517 326° Northwest  Level Estimated
Sat 09:35:00 PM 25.0694 121.5517 326° Northwest  Level Estimated
Sat 09:36:00 PM 25.0694 121.5517 326° Northwest  Level Estimated
Sat 09:37:00 PM 25.0694 121.5517 326° Northwest  Level Estimated
Sat 09:38:00 PM 25.0694 121.5517 326° Northwest  Level Estimated
Sat 09:39:00 PM 25.0694 121.5517 326° Northwest  Level Estimated
Sat 09:40:00 PM 25.0694 121.5517 326° Northwest  Level Estimated
Sat 09:41:00 PM 25.0694 121.5517 326° Northwest  Level Estimated
Sat 09:42:00 PM 25.0694 121.5517 326° Northwest  Level Estimated
Sat 09:43:00 PM 25.0694 121.5517 326° Northwest  Level Estimated
Sat 09:44:00 PM 25.0694 121.5517 326° Northwest  Level Estimated
Sat 09:45:00 PM 25.0694 121.5517 326° Northwest  Level Estimated
Sat 09:46:00 PM 25.0694 121.5517 326° Northwest  Level Estimated
Sat 09:47:00 PM 25.0694 121.5517 326° Northwest  Level Estimated
Sat 09:48:00 PM 25.0694 121.5517 326° Northwest  Level Estimated
Sat 09:49:00 PM 25.0694 121.5517 326° Northwest  Level Estimated
Sat 09:50:00 PM 25.0694 121.5517 326° Northwest  Level Estimated
Sat 09:51:00 PM 25.0694 121.5517 326° Northwest  Level Estimated
Sat 09:52:00 PM 25.0694 121.5517 326° Northwest  Level Estimated
Sat 09:53:00 PM 25.0694 121.5517 326° Northwest  Level Estimated
Sat 09:54:00 PM 25.0694 121.5517 326° Northwest  Level Estimated
Sat 09:55:00 PM 25.0694 121.5517 326° Northwest  Level Estimated
Sat 09:56:00 PM 25.0694 121.5517 326° Northwest  Level Estimated
Sat 09:57:00 PM 25.0694 121.5517 326° Northwest  Level Estimated
Sat 09:58:00 PM 25.0694 121.5517 326° Northwest  Level Estimated
Sat 09:59:00 PM 25.0694 121.5517 326° Northwest  Level Estimated
Sat 10:00:00 PM 25.0694 121.5517 326° Northwest  Level Estimated
Sat 10:01:00 PM 25.0694 121.5517 326° Northwest  Level Estimated
Sat 10:02:00 PM 25.0694 121.5517 326° Northwest  Level Estimated
Sat 10:03:00 PM 25.0694 121.5517 326° Northwest  Level Estimated
Sat 10:04:00 PM 25.0694 121.5517 326° Northwest  Level Estimated
Sat 10:05:00 PM 25.0694 121.5517 326° Northwest  Level Estimated

Login

Don't have an account? Register now (free) for customized features, flight alerts, and more!